Time;durP1;ratioP1;P1;durP2;ratioP2;P2;SDS_P1;SDS_P2;PMS_P1;PMS_P2;Temp;Humidity;BMP_temperature;BMP_pressure;BME280_temperature;BME280_humidity;BME280_pressure;Samples;Min_cycle;Max_cycle;Signal;HPM_P1;HPM_P2
2023/09/21 00:00:18;;;;;;;6.68;1.23;;;;;;;13.37;76.33;98028.81;5005780;28;22565;-49
2023/09/21 00:02:51;;;;;;;2.45;0.63;;;;;;;13.36;76.42;98011.53;5005527;28;20047;-43
2023/09/21 00:05:22;;;;;;;2.65;0.80;;;;;;;13.34;75.89;98008.13;4976762;28;20080;-47
2023/09/21 00:07:49;;;;;;;2.38;0.63;;;;;;;13.32;76.60;98009.97;4976489;28;20054;-44
2023/09/21 00:10:17;;;;;;;4.32;0.70;;;;;;;13.32;76.67;98009.13;4973416;28;20058;-43
2023/09/21 00:12:44;;;;;;;3.78;0.50;;;;;;;13.30;76.80;98005.75;4977646;28;20144;-45
2023/09/21 00:15:16;;;;;;;3.03;0.60;;;;;;;13.26;76.28;98005.06;4980909;28;20053;-48
2023/09/21 00:17:47;;;;;;;4.05;0.80;;;;;;;13.24;76.16;98012.06;4979145;28;20055;-48
2023/09/21 00:20:23;;;;;;;6.35;0.68;;;;;;;13.22;76.23;98014.78;4996439;28;20254;-48
2023/09/21 00:22:53;;;;;;;7.20;0.80;;;;;;;13.20;76.41;98011.38;4995548;28;20074;-50
2023/09/21 00:25:22;;;;;;;7.10;0.60;;;;;;;13.20;76.70;98026.13;4993183;28;20049;-42
2023/09/21 00:27:49;;;;;;;4.90;0.65;;;;;;;13.17;76.19;98024.53;4993066;28;21421;-50
2023/09/21 00:30:15;;;;;;;5.28;0.73;;;;;;;13.18;76.71;98033.16;4994623;28;20534;-45
2023/09/21 00:32:42;;;;;;;4.38;0.80;;;;;;;13.15;77.13;98038.50;5000189;28;20096;-46
2023/09/21 00:35:10;;;;;;;4.65;0.85;;;;;;;13.14;76.44;98031.63;5002316;28;20046;-45
2023/09/21 00:37:39;;;;;;;5.72;2.22;;;;;;;13.13;76.44;98045.53;4997054;28;20619;-48
2023/09/21 00:40:25;;;;;;;5.72;0.70;;;;;;;13.04;76.17;98052.81;5009852;28;20053;-48
2023/09/21 00:42:52;;;;;;;4.93;0.50;;;;;;;13.07;75.57;98052.69;5001152;28;20049;-49
2023/09/21 00:45:21;;;;;;;8.32;0.90;;;;;;;13.07;76.63;98046.66;4999578;28;20057;-45
2023/09/21 00:47:50;;;;;;;4.38;1.20;;;;;;;13.04;76.58;98050.22;4994638;28;20057;-46
2023/09/21 00:50:22;;;;;;;6.47;0.98;;;;;;;13.02;76.43;98062.47;4991337;28;20046;-45
2023/09/21 00:52:52;;;;;;;5.85;1.30;;;;;;;13.01;77.22;98062.53;4995208;28;20045;-49
2023/09/21 00:55:25;;;;;;;6.72;0.98;;;;;;;12.98;76.46;98059.13;4995154;28;20045;-49
2023/09/21 00:57:55;;;;;;;3.40;2.15;;;;;;;12.98;76.50;98063.50;4996990;28;20649;-47
2023/09/21 01:00:26;;;;;;;9.32;1.45;;;;;;;12.98;75.58;98063.50;4998319;28;20042;-42
2023/09/21 01:02:54;;;;;;;6.63;0.77;;;;;;;12.96;76.13;98062.72;4994730;28;20053;-48
2023/09/21 01:05:22;;;;;;;4.22;1.10;;;;;;;12.93;75.94;98060.25;5006274;28;20058;-48
2023/09/21 01:07:50;;;;;;;4.57;0.95;;;;;;;12.91;75.85;98062.94;4994296;28;20057;-48
2023/09/21 01:10:21;;;;;;;4.60;1.10;;;;;;;12.90;76.30;98065.59;4990775;28;20057;-52
2023/09/21 01:12:49;;;;;;;7.20;1.13;;;;;;;12.88;76.94;98057.03;4996907;28;20052;-45
2023/09/21 01:15:17;;;;;;;6.03;0.70;;;;;;;12.84;76.82;98057.16;5001584;28;20073;-47
2023/09/21 01:17:45;;;;;;;6.03;1.05;;;;;;;12.83;75.85;98060.66;4994081;28;20088;-48
2023/09/21 01:23:19;;;;;;;4.22;0.77;;;;;;;12.72;76.49;98052.50;4991523;27;20412;-46
2023/09/21 01:25:50;;;;;;;2.90;0.82;;;;;;;12.74;75.92;98061.09;5016370;28;20038;-47
2023/09/21 01:28:20;;;;;;;2.88;0.95;;;;;;;12.70;76.55;98055.16;4983917;28;20053;-44
2023/09/21 01:30:49;;;;;;;4.35;1.17;;;;;;;12.66;76.66;98057.97;5007993;28;20046;-49
2023/09/21 01:33:15;;;;;;;3.35;1.13;;;;;;;12.62;76.16;98051.19;4984062;28;20051;-45
2023/09/21 01:35:43;;;;;;;4.32;1.73;;;;;;;12.60;76.92;98048.69;4973012;28;20420;-44
2023/09/21 01:38:11;;;;;;;6.50;0.93;;;;;;;12.57;76.84;98048.81;4988482;28;20066;-44
2023/09/21 01:40:40;;;;;;;6.40;1.25;;;;;;;12.52;75.99;98049.03;4969332;28;20046;-50
2023/09/21 01:43:09;;;;;;;7.68;0.93;;;;;;;12.48;76.50;98055.25;5001818;28;20057;-48
2023/09/21 01:45:37;;;;;;;6.70;1.13;;;;;;;12.44;76.43;98043.31;4983868;28;20450;-48
2023/09/21 01:48:08;;;;;;;5.05;1.00;;;;;;;12.44;76.57;98056.28;5024608;28;20089;-44
2023/09/21 01:53:14;;;;;;;9.50;1.45;;;;;;;12.39;76.05;98050.47;5046781;28;20392;-46
2023/09/21 01:55:41;;;;;;;8.48;2.13;;;;;;;12.36;76.80;98048.00;4983858;28;20043;-47
2023/09/21 01:58:09;;;;;;;8.45;1.75;;;;;;;12.31;77.01;98049.03;4991025;28;20221;-49
2023/09/21 02:00:40;;;;;;;12.48;1.92;;;;;;;12.29;77.03;98053.44;5002606;28;20050;-46
2023/09/21 02:03:09;;;;;;;3.90;1.40;;;;;;;12.27;75.90;98054.41;4986705;28;20140;-49
2023/09/21 02:05:36;;;;;;;7.97;3.00;;;;;;;12.24;76.61;98055.38;4998490;28;20057;-46
2023/09/21 02:08:04;;;;;;;6.22;2.33;;;;;;;12.22;77.19;98059.78;5006857;28;20069;-44
2023/09/21 02:10:32;;;;;;;8.43;2.20;;;;;;;12.19;76.80;98059.91;5004007;28;20050;-49
2023/09/21 02:13:00;;;;;;;8.10;1.75;;;;;;;12.17;76.46;98056.53;5005736;28;20046;-41
2023/09/21 02:15:28;;;;;;;3.15;1.30;;;;;;;12.13;76.46;98055.81;4999963;28;20062;-44
2023/09/21 02:17:56;;;;;;;6.88;1.70;;;;;;;12.08;76.76;98056.03;5006908;28;20060;-46
2023/09/21 02:20:23;;;;;;;6.38;1.92;;;;;;;12.08;76.77;98057.75;5014746;28;20652;-45
2023/09/21 02:22:52;;;;;;;7.10;1.63;;;;;;;12.01;76.17;98064.94;5008848;28;20519;-46
2023/09/21 02:25:20;;;;;;;5.05;2.05;;;;;;;11.98;75.83;98059.84;5011591;28;20049;-45
2023/09/21 02:27:47;;;;;;;8.07;1.65;;;;;;;11.94;77.13;98058.28;5010216;28;20798;-49
2023/09/21 02:30:17;;;;;;;6.85;1.70;;;;;;;11.90;76.79;98055.00;5003628;28;20049;-49
2023/09/21 02:32:45;;;;;;;;;;;;;;;11.70;76.02;98059.22;5002801;28;20108;-42
2023/09/21 02:35:15;;;;;;;5.20;1.70;;;;;;;11.76;75.50;98063.28;4998886;28;19957;-44
2023/09/21 02:37:44;;;;;;;8.07;1.85;;;;;;;11.73;76.68;98060.84;5004304;28;20056;-48
2023/09/21 02:40:14;;;;;;;7.97;2.00;;;;;;;11.69;76.16;98072.25;4993329;28;20054;-48
2023/09/21 02:42:42;;;;;;;8.13;2.45;;;;;;;11.67;76.60;98069.72;5016713;28;20443;-44
2023/09/21 02:45:11;;;;;;;8.60;1.73;;;;;;;11.62;76.81;98075.97;4998672;28;20158;-45
2023/09/21 02:47:41;;;;;;;4.20;1.15;;;;;;;11.60;75.97;98077.78;5003568;28;20090;-48
2023/09/21 02:50:27;;;;;;;6.45;2.00;;;;;;;11.58;76.56;98070.06;5001785;28;20085;-41
2023/09/21 02:52:56;;;;;;;2.17;0.80;;;;;;;11.56;77.06;98069.28;4997144;28;20365;-48
2023/09/21 02:55:26;;;;;;;4.13;1.60;;;;;;;11.52;76.39;98060.75;5002298;28;20072;-49
2023/09/21 03:03:13;;;;;;;4.80;1.15;;;;;;;11.52;76.53;98055.56;5060314;28;20395;-46
2023/09/21 03:05:42;;;;;;;7.95;1.15;;;;;;;11.51;76.41;98059.09;5020795;28;20050;-49
2023/09/21 03:08:13;;;;;;;7.18;0.77;;;;;;;11.48;76.99;98059.19;5017633;28;20054;-43
2023/09/21 03:13:18;;;;;;;5.20;2.17;;;;;;;11.46;77.04;98054.97;5036353;28;20397;-46
2023/09/21 03:15:47;;;;;;;5.78;3.05;;;;;;;11.43;76.92;98055.94;5001423;28;20054;-47
2023/09/21 03:18:15;;;;;;;9.68;2.10;;;;;;;11.41;76.26;98057.75;5000806;28;20045;-44
2023/09/21 03:20:44;;;;;;;6.65;1.98;;;;;;;11.39;76.65;98054.38;5003625;28;20072;-45
2023/09/21 03:23:13;;;;;;;9.00;2.90;;;;;;;11.37;77.18;98050.97;5007087;28;20046;-44
2023/09/21 03:25:42;;;;;;;7.07;2.85;;;;;;;11.36;77.13;98049.31;4994449;28;20050;-45
2023/09/21 03:28:13;;;;;;;6.60;2.05;;;;;;;11.35;76.50;98045.03;5005720;28;20049;-48
2023/09/21 03:30:42;;;;;;;11.23;3.45;;;;;;;11.32;76.56;98044.22;4997945;28;20061;-44
2023/09/21 03:33:10;;;;;;;5.65;2.80;;;;;;;11.31;76.49;98037.38;5005865;28;20151;-52
2023/09/21 03:35:37;;;;;;;7.05;2.50;;;;;;;11.30;77.67;98035.69;5001674;28;20524;-45
2023/09/21 03:38:06;;;;;;;4.18;2.58;;;;;;;11.27;76.72;98035.78;5002443;28;20061;-43
2023/09/21 03:40:33;;;;;;;5.40;2.47;;;;;;;11.28;77.62;98047.03;5001859;28;20156;-47
2023/09/21 03:43:00;;;;;;;6.28;1.98;;;;;;;11.26;77.46;98054.00;5003170;28;20794;-49
2023/09/21 03:45:27;;;;;;;7.63;2.65;;;;;;;11.24;76.89;98045.41;4998531;28;20078;-47
2023/09/21 03:47:54;;;;;;;4.82;3.20;;;;;;;11.22;76.60;98053.28;5003064;28;20057;-44
2023/09/21 03:50:27;;;;;;;8.55;2.53;;;;;;;11.20;76.95;98049.88;5001803;28;20054;-47
2023/09/21 03:52:54;;;;;;;9.43;2.80;;;;;;;11.17;77.40;98047.41;5005674;28;20084;-43
2023/09/21 03:55:21;;;;;;;5.78;3.50;;;;;;;11.15;76.86;98044.03;5005614;28;20065;-46
2023/09/21 03:57:48;;;;;;;7.30;2.53;;;;;;;11.14;76.90;98044.91;5007807;28;20050;-44
2023/09/21 04:00:26;;;;;;;8.82;2.88;;;;;;;11.12;76.99;98047.59;5008077;28;20069;-42
2023/09/21 04:02:53;;;;;;;3.75;2.47;;;;;;;11.12;76.61;98041.56;5004251;28;20041;-43
2023/09/21 04:05:24;;;;;;;7.18;2.55;;;;;;;11.10;77.64;98043.34;5000477;28;20096;-46
2023/09/21 04:07:52;;;;;;;9.20;2.92;;;;;;;11.09;76.89;98041.66;4995898;28;20069;-44
2023/09/21 04:10:18;;;;;;;7.13;2.83;;;;;;;11.06;77.08;98042.63;4993803;28;20116;-44
2023/09/21 04:12:45;;;;;;;5.70;2.25;;;;;;;11.06;76.80;98034.84;4996037;28;20059;-50
2023/09/21 04:15:12;;;;;;;8.93;3.42;;;;;;;11.05;77.17;98041.78;5003756;28;20050;-46
2023/09/21 04:17:39;;;;;;;5.20;2.70;;;;;;;11.05;77.10;98035.75;5007148;28;20182;-44
2023/09/21 04:20:12;;;;;;;7.78;3.45;;;;;;;11.05;77.55;98036.59;4998449;28;20147;-42
2023/09/21 04:22:40;;;;;;;13.40;5.30;;;;;;;11.04;78.04;98037.50;4988414;28;20148;-45
2023/09/21 04:25:09;;;;;;;5.05;2.42;;;;;;;11.04;77.79;98034.06;4981071;28;20057;-42
2023/09/21 04:27:39;;;;;;;4.55;3.08;;;;;;;11.03;77.36;98038.41;4982408;28;20498;-41
2023/09/21 04:30:09;;;;;;;6.45;2.78;;;;;;;11.03;77.72;98037.56;4985867;28;20058;-49
2023/09/21 04:32:36;;;;;;;3.15;2.35;;;;;;;11.04;77.94;98054.78;4983378;28;20133;-51
2023/09/21 04:35:04;;;;;;;7.22;2.78;;;;;;;11.03;77.80;98046.19;4984659;28;20101;-48
2023/09/21 04:37:34;;;;;;;7.55;1.40;;;;;;;11.03;76.69;98053.09;4990743;28;20448;-43
2023/09/21 04:40:09;;;;;;;8.13;3.42;;;;;;;11.02;77.90;98052.25;4984732;28;20050;-41
2023/09/21 04:42:38;;;;;;;8.75;4.20;;;;;;;11.02;77.91;98057.44;4980452;28;20050;-44
2023/09/21 04:45:10;;;;;;;8.25;2.88;;;;;;;11.00;77.24;98063.56;4981151;28;20057;-48
2023/09/21 04:47:39;;;;;;;9.80;2.88;;;;;;;10.97;77.73;98064.53;4980968;28;21016;-46
2023/09/21 04:50:06;;;;;;;5.18;2.92;;;;;;;10.93;77.83;98057.78;4981645;28;20053;-43
2023/09/21 04:52:35;;;;;;;8.55;3.03;;;;;;;10.92;77.78;98066.44;4985213;28;20045;-42
2023/09/21 04:55:04;;;;;;;7.25;2.83;;;;;;;10.89;76.95;98066.56;4992682;28;20507;-46
2023/09/21 04:57:31;;;;;;;9.98;5.10;;;;;;;10.85;78.11;98054.63;4978509;28;20488;-47
2023/09/21 04:59:58;;;;;;;5.90;3.08;;;;;;;10.85;77.66;98059.81;4982596;28;20050;-48
2023/09/21 05:02:26;;;;;;;5.82;2.55;;;;;;;10.83;77.64;98056.41;4979504;28;20155;-45
2023/09/21 05:04:53;;;;;;;6.35;2.75;;;;;;;10.78;77.79;98054.00;4980763;28;20114;-43
2023/09/21 05:07:20;;;;;;;5.57;2.97;;;;;;;10.76;77.33;98055.78;4983723;28;20265;-43
2023/09/21 05:09:47;;;;;;;9.35;2.92;;;;;;;10.74;76.86;98052.41;4980756;28;20050;-49
2023/09/21 05:12:15;;;;;;;6.30;3.22;;;;;;;10.71;77.80;98053.34;4983843;28;20065;-43
2023/09/21 05:14:43;;;;;;;13.55;3.85;;;;;;;10.70;77.10;98056.03;4990581;28;20088;-47
2023/09/21 05:17:10;;;;;;;5.57;3.00;;;;;;;10.68;78.08;98061.25;4988386;28;20057;-44
2023/09/21 05:19:36;;;;;;;7.55;3.72;;;;;;;10.69;77.81;98059.50;4982565;28;20562;-49
2023/09/21 05:22:09;;;;;;;;;;;;;;;10.57;78.30;98058.19;4981761;28;20081;-44
2023/09/21 05:24:36;;;;;;;7.32;2.78;;;;;;;10.64;77.08;98062.25;4987393;28;19929;-45
2023/09/21 05:27:04;;;;;;;7.28;4.25;;;;;;;10.67;77.08;98068.16;4983467;28;20046;-43
2023/09/21 05:29:31;;;;;;;9.82;3.53;;;;;;;10.67;77.73;98073.34;4995651;28;20046;-50
2023/09/21 05:31:57;;;;;;;9.00;2.67;;;;;;;10.67;77.77;98078.53;4993215;28;20042;-48
2023/09/21 05:34:28;;;;;;;7.97;2.53;;;;;;;10.67;76.91;98072.47;4989114;28;20047;-41
2023/09/21 05:36:55;;;;;;;5.43;2.92;;;;;;;10.67;77.12;98072.47;4990027;28;20156;-48
2023/09/21 05:39:23;;;;;;;8.90;2.67;;;;;;;10.66;77.27;98071.66;4992633;28;20045;-49
2023/09/21 05:41:51;;;;;;;6.53;3.13;;;;;;;10.67;77.14;98075.94;4988413;28;20171;-47
2023/09/21 05:44:21;;;;;;;7.20;2.47;;;;;;;10.67;76.95;98075.06;4994268;28;20053;-45
2023/09/21 05:46:50;;;;;;;;;;;;;;;10.53;77.83;98071.22;4984216;28;20054;-49
2023/09/21 05:49:22;;;;;;;6.18;2.90;;;;;;;10.63;77.57;98070.91;4982850;28;19937;-44
2023/09/21 05:51:56;;;;;;;10.77;3.67;;;;;;;10.61;77.74;98070.94;4986651;28;20055;-39
2023/09/21 05:54:24;;;;;;;5.68;2.78;;;;;;;10.64;77.12;98077.78;4989562;28;20054;-49
2023/09/21 05:56:52;;;;;;;8.10;2.63;;;;;;;10.62;77.02;98072.66;4989525;28;20157;-43
2023/09/21 05:59:21;;;;;;;8.70;2.60;;;;;;;10.62;77.46;98084.75;4989969;28;20061;-44
2023/09/21 06:01:49;;;;;;;6.97;3.22;;;;;;;10.60;77.89;98078.81;4979133;28;20058;-48
2023/09/21 06:04:17;;;;;;;12.05;2.88;;;;;;;10.60;77.44;98087.38;4980604;28;20050;-49
2023/09/21 06:06:45;;;;;;;11.13;2.75;;;;;;;10.61;77.50;98098.59;4984736;28;20046;-47
2023/09/21 06:09:18;;;;;;;4.97;1.80;;;;;;;10.60;77.62;98092.56;4990101;28;20446;-45
2023/09/21 06:11:48;;;;;;;5.43;1.48;;;;;;;10.61;77.61;98096.00;4980769;28;20472;-42
2023/09/21 06:14:17;;;;;;;8.00;2.50;;;;;;;10.63;77.42;98104.56;4978797;28;20046;-43
2023/09/21 06:16:44;;;;;;;5.78;2.65;;;;;;;10.63;77.67;98107.16;4981536;28;20046;-46
2023/09/21 06:19:11;;;;;;;6.63;2.70;;;;;;;10.65;77.38;98100.19;4987393;28;20049;-45
2023/09/21 06:21:40;;;;;;;8.90;2.67;;;;;;;10.67;77.58;98103.56;4982753;28;20153;-46
2023/09/21 06:24:10;;;;;;;3.63;1.98;;;;;;;10.69;77.61;98101.78;4980959;28;20050;-43
2023/09/21 06:26:37;;;;;;;8.10;3.25;;;;;;;10.72;76.64;98106.00;4992442;28;20138;-44
2023/09/21 06:29:04;;;;;;;8.35;2.40;;;;;;;10.75;77.13;98106.75;4991231;28;20049;-46
2023/09/21 06:31:32;;;;;;;9.13;3.08;;;;;;;10.79;76.83;98110.91;4983188;28;20049;-47
2023/09/21 06:33:59;;;;;;;5.57;2.72;;;;;;;10.82;77.06;98114.28;4984173;28;20054;-52
2023/09/21 06:36:28;;;;;;;5.82;2.55;;;;;;;10.86;76.74;98118.47;4982771;28;20046;-44
2023/09/21 06:38:57;;;;;;;10.88;2.97;;;;;;;10.91;77.62;98121.75;4988701;28;20045;-46
2023/09/21 06:41:25;;;;;;;8.07;2.83;;;;;;;11.00;77.21;98121.41;4983130;28;20073;-41
2023/09/21 06:43:52;;;;;;;5.38;3.42;;;;;;;11.12;78.03;98119.28;4984270;28;20045;-43
2023/09/21 06:46:18;;;;;;;6.32;2.92;;;;;;;11.23;77.28;98127.50;4983313;28;20053;-49
2023/09/21 06:48:45;;;;;;;5.55;3.13;;;;;;;11.31;77.89;98125.47;4984392;28;20061;-46
2023/09/21 06:51:12;;;;;;;5.85;2.85;;;;;;;11.43;78.03;98123.34;4981470;28;20503;-45
2023/09/21 06:53:39;;;;;;;5.85;3.17;;;;;;;11.54;77.21;98128.97;4983421;28;20050;-45
2023/09/21 06:56:06;;;;;;;7.47;3.08;;;;;;;11.64;77.86;98131.19;4984252;28;20058;-48
2023/09/21 06:58:35;;;;;;;8.75;3.20;;;;;;;11.70;77.98;98130.97;4984157;28;20042;-48
2023/09/21 07:01:04;;;;;;;5.00;2.97;;;;;;;11.76;77.64;98135.91;4983966;28;20507;-46
2023/09/21 07:03:32;;;;;;;9.93;4.60;;;;;;;11.85;77.92;98126.13;4980604;28;20089;-45
2023/09/21 07:05:59;;;;;;;6.65;3.65;;;;;;;11.94;77.74;98130.94;4980236;28;20049;-50
2023/09/21 07:08:26;;;;;;;7.20;3.42;;;;;;;12.01;77.04;98129.78;4984844;28;20079;-49
2023/09/21 07:10:53;;;;;;;6.75;3.40;;;;;;;12.12;76.89;98141.53;4973121;28;20047;-40
2023/09/21 07:13:20;;;;;;;7.30;3.13;;;;;;;12.33;77.44;98139.81;4979519;28;20074;-48
2023/09/21 07:15:48;;;;;;;8.38;3.72;;;;;;;13.01;78.20;98143.94;4981413;28;20066;-49
2023/09/21 07:18:16;;;;;;;11.05;4.80;;;;;;;13.80;76.64;98134.38;4984729;28;20811;-43
2023/09/21 07:20:43;;;;;;;8.88;3.42;;;;;;;14.59;75.77;98136.72;4985240;28;20058;-47
2023/09/21 07:23:10;;;;;;;7.68;3.53;;;;;;;15.29;74.10;98135.78;4979078;28;20522;-44
2023/09/21 07:25:37;;;;;;;9.75;3.95;;;;;;;15.91;73.31;98136.84;4977207;28;20059;-47
2023/09/21 07:28:04;;;;;;;6.82;3.33;;;;;;;16.51;71.68;98129.19;4983207;28;20602;-49
2023/09/21 07:30:32;;;;;;;5.57;2.85;;;;;;;17.12;70.67;98136.94;4982972;28;20050;-46
2023/09/21 07:33:00;;;;;;;4.32;3.25;;;;;;;17.73;69.49;98134.09;4983522;28;20047;-45
2023/09/21 07:35:28;;;;;;;5.63;3.28;;;;;;;18.34;68.91;98137.31;4984503;28;20050;-43
2023/09/21 07:37:55;;;;;;;6.22;1.55;;;;;;;18.79;68.28;98131.72;4985518;28;22160;-49
2023/09/21 07:40:24;;;;;;;7.20;2.58;;;;;;;19.19;67.49;98136.03;4984806;28;20427;-43
2023/09/21 07:42:51;;;;;;;8.52;3.33;;;;;;;19.61;66.39;98137.53;4990763;28;20045;-52
2023/09/21 07:45:22;;;;;;;9.55;3.47;;;;;;;20.00;65.44;98137.44;4994156;28;20046;-47
2023/09/21 07:47:49;;;;;;;4.47;2.83;;;;;;;20.34;65.30;98139.38;4998813;28;20046;-46
2023/09/21 07:50:18;;;;;;;6.50;2.78;;;;;;;20.63;63.87;98152.97;4995002;28;20399;-48
2023/09/21 07:52:45;;;;;;;6.00;2.35;;;;;;;20.92;64.28;98154.41;4985262;28;20049;-49
2023/09/21 07:55:13;;;;;;;6.30;2.88;;;;;;;21.25;63.71;98155.41;4985152;28;20046;-48
2023/09/21 07:57:40;;;;;;;8.48;3.00;;;;;;;21.48;62.28;98149.28;4989809;28;20042;-45
2023/09/21 08:00:09;;;;;;;6.05;3.63;;;;;;;21.69;61.97;98154.66;4997657;28;20496;-42
2023/09/21 08:02:37;;;;;;;6.25;2.90;;;;;;;21.91;61.64;98155.59;4985559;28;20415;-42
2023/09/21 08:05:06;;;;;;;7.00;2.67;;;;;;;22.08;60.40;98151.59;4987795;28;20050;-44
2023/09/21 08:07:33;;;;;;;8.30;2.78;;;;;;;22.20;60.36;98149.75;5004941;28;20061;-46
2023/09/21 08:10:01;;;;;;;3.97;3.33;;;;;;;22.34;59.95;98157.38;4998957;28;20086;-45
2023/09/21 08:12:30;;;;;;;5.68;3.13;;;;;;;22.43;58.85;98157.59;4999489;28;20499;-48
2023/09/21 08:14:57;;;;;;;5.63;2.22;;;;;;;22.64;59.11;98156.78;5001054;28;20137;-49
2023/09/21 08:17:24;;;;;;;5.38;2.60;;;;;;;22.83;60.23;98150.81;5001557;28;20072;-47
2023/09/21 08:19:51;;;;;;;8.65;2.28;;;;;;;23.03;58.74;98145.66;4994666;28;20053;-51
2023/09/21 08:22:18;;;;;;;7.70;2.58;;;;;;;23.17;57.71;98147.09;5001368;28;20085;-46
2023/09/21 08:24:45;;;;;;;5.80;2.30;;;;;;;23.35;57.83;98149.97;5003314;28;20050;-44
2023/09/21 08:27:11;;;;;;;6.68;3.00;;;;;;;23.61;58.04;98145.06;4994964;28;20061;-45
2023/09/21 08:29:40;;;;;;;4.30;2.88;;;;;;;23.96;57.75;98150.00;4996222;28;20141;-50
2023/09/21 08:32:07;;;;;;;8.75;3.10;;;;;;;24.28;57.63;98148.94;4990415;28;20133;-50
2023/09/21 08:34:34;;;;;;;9.40;2.40;;;;;;;24.58;57.59;98149.75;4985396;28;20052;-41
2023/09/21 08:37:00;;;;;;;5.80;3.05;;;;;;;24.84;56.16;98141.22;4996537;28;20053;-49
2023/09/21 08:39:27;;;;;;;6.07;2.35;;;;;;;25.16;56.42;98140.03;4999387;28;20081;-53
2023/09/21 08:41:54;;;;;;;4.07;2.35;;;;;;;25.44;56.09;98146.34;4997455;28;20077;-47
2023/09/21 08:44:21;;;;;;;3.65;1.88;;;;;;;25.61;53.59;98140.31;4988409;28;20054;-51
2023/09/21 08:46:48;;;;;;;7.55;2.33;;;;;;;25.67;52.81;98139.69;4990718;28;20042;-45
2023/09/21 08:49:16;;;;;;;5.03;1.88;;;;;;;25.67;52.70;98142.34;4991471;28;20058;-43
2023/09/21 08:51:42;;;;;;;5.10;2.47;;;;;;;25.70;52.51;98140.41;4990219;28;20046;-44
2023/09/21 08:54:13;;;;;;;5.57;2.22;;;;;;;25.75;51.72;98143.41;5004191;28;20045;-47
2023/09/21 08:56:42;;;;;;;7.32;1.85;;;;;;;25.79;51.19;98142.97;4994104;28;20158;-47
2023/09/21 08:59:09;;;;;;;4.00;2.70;;;;;;;25.86;50.80;98142.38;5004811;28;20068;-45
2023/09/21 09:01:36;;;;;;;7.40;2.38;;;;;;;26.01;51.94;98142.72;4997884;28;20046;-50
2023/09/21 09:04:03;;;;;;;4.38;2.42;;;;;;;26.20;51.39;98138.25;4998004;28;20129;-44
2023/09/21 09:06:30;;;;;;;4.88;2.30;;;;;;;26.17;50.20;98144.66;4995612;28;20572;-46
2023/09/21 09:08:57;;;;;;;3.45;3.05;;;;;;;26.29;51.81;98150.63;4992682;28;20156;-47
2023/09/21 09:14:16;;;;;;;5.18;0.63;;;;;;;26.64;49.38;98143.59;5052448;28;20397;-50
2023/09/21 09:16:44;;;;;;;3.90;0.70;;;;;;;26.73;48.27;98148.97;5027743;27;20052;-48
2023/09/21 09:19:11;;;;;;;9.25;1.40;;;;;;;26.75;47.53;98144.34;5001684;28;20046;-46
2023/09/21 09:21:40;;;;;;;4.32;0.90;;;;;;;26.93;49.49;98153.09;5019737;28;20517;-52
2023/09/21 09:24:08;;;;;;;3.55;0.80;;;;;;;27.30;49.34;98147.66;5013017;28;20478;-44
2023/09/21 09:26:36;;;;;;;5.85;0.80;;;;;;;27.45;47.14;98148.72;5004260;28;20393;-50
2023/09/21 09:29:08;;;;;;;2.15;0.60;;;;;;;27.46;47.33;98146.91;5009069;28;20057;-42
2023/09/21 09:31:40;;;;;;;2.80;0.60;;;;;;;27.47;46.48;98143.25;5004122;28;20137;-44
2023/09/21 09:34:09;;;;;;;2.67;0.60;;;;;;;27.41;45.38;98150.06;5002808;28;20046;-46
2023/09/21 09:36:36;;;;;;;3.97;0.70;;;;;;;27.35;45.31;98145.34;5002155;28;20061;-48
2023/09/21 09:39:14;;;;;;;3.70;0.70;;;;;;;27.34;44.75;98154.34;4999038;28;20625;-48
2023/09/21 09:41:42;;;;;;;1.63;0.85;;;;;;;27.40;45.46;98153.72;5004161;28;20073;-44
2023/09/21 09:44:14;;;;;;;2.92;1.00;;;;;;;27.48;45.29;98149.41;4999635;28;20081;-49
2023/09/21 09:46:42;;;;;;;5.40;0.90;;;;;;;27.45;44.75;98148.72;5001128;28;20064;-45
2023/09/21 09:49:10;;;;;;;4.63;0.80;;;;;;;27.43;45.91;98153.38;5008122;28;20503;-46
2023/09/21 09:51:45;;;;;;;2.38;0.60;;;;;;;27.29;44.21;98146.00;5009735;28;20071;-41
2023/09/21 09:54:13;;;;;;;5.18;1.05;;;;;;;27.29;45.67;98146.00;5009255;28;20079;-45
2023/09/21 09:56:41;;;;;;;2.55;0.52;;;;;;;27.45;46.25;98146.06;5012049;28;20085;-49
2023/09/21 09:59:11;;;;;;;3.88;0.82;;;;;;;27.44;44.79;98151.56;5008082;28;20058;-43
2023/09/21 10:01:41;;;;;;;5.00;1.38;;;;;;;27.47;45.38;98137.94;5006513;28;20785;-47
2023/09/21 10:04:08;;;;;;;6.10;1.00;;;;;;;27.35;44.58;98145.34;5006052;28;20113;-40
2023/09/21 10:06:36;;;;;;;6.30;1.63;;;;;;;27.37;46.35;98143.38;5001964;28;20042;-49
2023/09/21 10:09:10;;;;;;;2.42;0.98;;;;;;;27.45;45.26;98140.75;5002631;28;20491;-46
2023/09/21 10:11:42;;;;;;;3.45;0.60;;;;;;;27.37;45.81;98138.06;4997924;28;20077;-55
2023/09/21 10:14:12;;;;;;;4.93;1.33;;;;;;;27.30;44.20;98131.72;4998697;28;20053;-46
2023/09/21 10:16:48;;;;;;;5.13;0.80;;;;;;;27.17;45.59;98133.00;4998250;28;22044;-47
2023/09/21 10:19:17;;;;;;;3.05;0.68;;;;;;;27.06;44.27;98135.94;4998330;28;20047;-48
2023/09/21 10:21:45;;;;;;;2.78;0.93;;;;;;;26.92;44.46;98135.47;4998778;28;20503;-46
2023/09/21 10:26:50;;;;;;;3.53;0.95;;;;;;;26.42;45.61;98137.81;5040762;27;20389;-50
2023/09/21 10:29:19;;;;;;;5.07;1.45;;;;;;;26.57;45.38;98134.59;5018529;28;20101;-44
2023/09/21 10:32:00;;;;;;;2.05;1.08;;;;;;;26.56;45.97;98130.28;5019029;28;20763;-45
2023/09/21 10:34:29;;;;;;;5.57;1.15;;;;;;;26.67;46.38;98127.38;5019371;28;20045;-44
2023/09/21 10:37:15;;;;;;;2.47;0.45;;;;;;;26.50;43.10;98125.56;5015666;28;21266;-51
2023/09/21 10:39:44;;;;;;;2.70;0.70;;;;;;;25.92;43.68;98126.72;5017425;28;20050;-46
2023/09/21 10:45:04;;;;;;;5.63;0.82;;;;;;;24.60;45.40;98131.09;5075892;27;20411;-44
2023/09/21 10:50:20;;;;;;;3.90;0.95;;;;;;;24.24;46.71;98118.44;5040551;28;20403;-49
2023/09/21 10:52:51;;;;;;;5.15;1.60;;;;;;;23.87;46.34;98120.78;5006635;28;20419;-50
2023/09/21 10:55:20;;;;;;;3.67;0.77;;;;;;;23.59;47.26;98125.03;5001076;28;20739;-48
2023/09/21 10:57:50;;;;;;;2.67;1.33;;;;;;;23.35;46.79;98119.13;4997482;28;20052;-51
2023/09/21 11:00:20;;;;;;;4.75;0.88;;;;;;;23.11;47.44;98117.59;5001092;28;20127;-47
2023/09/21 11:02:49;;;;;;;6.10;0.63;;;;;;;22.98;47.97;98111.72;4994020;28;20057;-42
2023/09/21 11:05:19;;;;;;;4.72;0.63;;;;;;;23.02;49.46;98109.63;4999299;28;20046;-43
2023/09/21 11:07:48;;;;;;;5.78;1.48;;;;;;;23.05;49.21;98110.22;5026131;28;20138;-50
2023/09/21 11:10:16;;;;;;;3.80;1.05;;;;;;;23.02;49.52;98105.19;5025779;28;20061;-46
2023/09/21 11:12:45;;;;;;;2.13;0.98;;;;;;;23.13;50.43;98100.81;5001339;28;20081;-46
2023/09/21 11:15:16;;;;;;;4.25;1.15;;;;;;;23.38;49.47;98096.03;5004493;28;20051;-49
2023/09/21 11:17:45;;;;;;;3.97;1.42;;;;;;;23.47;48.76;98090.78;5006091;28;20077;-47
2023/09/21 11:20:14;;;;;;;3.70;1.95;;;;;;;23.51;48.47;98091.38;5004157;28;20396;-50
2023/09/21 11:22:42;;;;;;;3.28;0.93;;;;;;;23.38;47.99;98090.75;4995093;28;20049;-57
2023/09/21 11:25:11;;;;;;;4.88;2.30;;;;;;;23.46;49.75;98090.91;4995964;28;20405;-45
2023/09/21 11:27:41;;;;;;;4.10;0.77;;;;;;;23.79;50.08;98088.91;4996954;28;20066;-45
2023/09/21 11:30:11;;;;;;;3.08;1.08;;;;;;;24.07;48.06;98081.13;4999578;28;20062;-51
2023/09/21 11:32:44;;;;;;;2.95;1.42;;;;;;;24.17;48.48;98069.72;4998334;28;20061;-45
2023/09/21 11:35:12;;;;;;;3.15;0.93;;;;;;;24.30;48.05;98075.59;4997367;28;20054;-45
2023/09/21 11:37:39;;;;;;;3.08;1.95;;;;;;;24.35;46.84;98083.91;5015758;28;20479;-48
2023/09/21 11:40:11;;;;;;;2.85;0.70;;;;;;;24.37;47.32;98081.97;5011868;28;20059;-42
2023/09/21 11:42:44;;;;;;;2.78;1.08;;;;;;;24.40;46.74;98078.22;5000426;28;20053;-48
2023/09/21 11:45:16;;;;;;;2.63;1.38;;;;;;;24.43;46.32;98074.44;4999723;28;20042;-50
2023/09/21 11:47:48;;;;;;;3.00;1.25;;;;;;;24.52;46.57;98089.50;5019230;28;20133;-48
2023/09/21 11:50:33;;;;;;;2.10;0.90;;;;;;;24.32;45.14;98100.06;5041943;28;20563;-54
2023/09/21 11:53:06;;;;;;;2.22;1.25;;;;;;;24.01;44.91;98108.09;5017015;28;20061;-49
2023/09/21 11:55:33;;;;;;;2.58;0.77;;;;;;;23.75;45.56;98098.91;5015860;28;20057;-45
2023/09/21 12:01:12;;;;;;;5.05;2.08;;;;;;;23.87;46.88;98081.13;5042759;27;20394;-50
2023/09/21 12:03:33;;;;;;;4.75;2.22;;;;;;;23.96;46.63;98073.34;5006895;28;20041;-47
2023/09/21 12:06:04;;;;;;;5.40;1.80;;;;;;;23.75;45.60;98066.38;5019509;28;20064;-50
2023/09/21 12:08:32;;;;;;;4.05;1.27;;;;;;;23.56;46.27;98078.59;5019480;28;20090;-47